sensor_id;sensor_type;location;lat;lon;timestamp;temperature;humidity
23769;DHT22;12064;50.890;5.424;2023-05-19T00:03:16;20.80;80.00
23769;DHT22;12064;50.890;5.424;2023-05-19T00:12:11;20.70;80.20
23769;DHT22;12064;50.890;5.424;2023-05-19T00:21:02;20.70;80.30
23769;DHT22;12064;50.890;5.424;2023-05-19T00:29:53;20.60;80.50
23769;DHT22;12064;50.890;5.424;2023-05-19T00:38:43;20.60;80.60
23769;DHT22;12064;50.890;5.424;2023-05-19T00:47:37;20.60;81.50
23769;DHT22;12064;50.890;5.424;2023-05-19T00:56:28;20.50;80.90
23769;DHT22;12064;50.890;5.424;2023-05-19T01:05:22;20.50;81.10
23769;DHT22;12064;50.890;5.424;2023-05-19T01:14:12;20.50;81.40
23769;DHT22;12064;50.890;5.424;2023-05-19T01:32:05;20.40;81.80
23769;DHT22;12064;50.890;5.424;2023-05-19T01:40:57;20.40;81.90
23769;DHT22;12064;50.890;5.424;2023-05-19T01:49:48;20.30;81.90
23769;DHT22;12064;50.890;5.424;2023-05-19T01:58:47;20.30;82.40
23769;DHT22;12064;50.890;5.424;2023-05-19T02:07:51;20.30;82.50
23769;DHT22;12064;50.890;5.424;2023-05-19T02:16:46;20.20;82.70
23769;DHT22;12064;50.890;5.424;2023-05-19T02:25:37;20.20;82.70
23769;DHT22;12064;50.890;5.424;2023-05-19T02:34:28;20.20;82.90
23769;DHT22;12064;50.890;5.424;2023-05-19T02:43:18;20.20;83.00
23769;DHT22;12064;50.890;5.424;2023-05-19T02:52:12;20.10;83.10
23769;DHT22;12064;50.890;5.424;2023-05-19T03:01:03;20.10;83.40
23769;DHT22;12064;50.890;5.424;2023-05-19T03:09:53;20.10;83.70
23769;DHT22;12064;50.890;5.424;2023-05-19T03:18:45;20.10;83.50
23769;DHT22;12064;50.890;5.424;2023-05-19T03:27:35;20.00;83.60
23769;DHT22;12064;50.890;5.424;2023-05-19T03:36:26;20.00;83.80
23769;DHT22;12064;50.890;5.424;2023-05-19T03:45:21;19.90;84.10
23769;DHT22;12064;50.890;5.424;2023-05-19T03:54:11;19.90;84.20
23769;DHT22;12064;50.890;5.424;2023-05-19T04:03:02;19.90;84.30
23769;DHT22;12064;50.890;5.424;2023-05-19T04:11:53;19.90;84.70
23769;DHT22;12064;50.890;5.424;2023-05-19T04:20:43;19.90;84.80
23769;DHT22;12064;50.890;5.424;2023-05-19T04:29:34;19.80;85.10
23769;DHT22;12064;50.890;5.424;2023-05-19T04:38:25;19.80;85.20
23769;DHT22;12064;50.890;5.424;2023-05-19T04:47:17;19.80;85.50
23769;DHT22;12064;50.890;5.424;2023-05-19T04:56:10;19.70;85.30
23769;DHT22;12064;50.890;5.424;2023-05-19T05:05:04;19.80;85.50
23769;DHT22;12064;50.890;5.424;2023-05-19T05:13:55;19.80;85.60
23769;DHT22;12064;50.890;5.424;2023-05-19T05:22:47;19.80;85.50
23769;DHT22;12064;50.890;5.424;2023-05-19T05:31:38;19.80;85.40
23769;DHT22;12064;50.890;5.424;2023-05-19T05:40:29;19.80;85.50
23769;DHT22;12064;50.890;5.424;2023-05-19T05:49:20;19.90;84.70
23769;DHT22;12064;50.890;5.424;2023-05-19T05:58:10;19.90;83.50
23769;DHT22;12064;50.890;5.424;2023-05-19T06:07:05;19.90;82.30
23769;DHT22;12064;50.890;5.424;2023-05-19T06:15:55;20.00;80.90
23769;DHT22;12064;50.890;5.424;2023-05-19T06:24:46;20.10;80.00
23769;DHT22;12064;50.890;5.424;2023-05-19T06:33:37;20.30;79.30
23769;DHT22;12064;50.890;5.424;2023-05-19T06:42:27;20.30;78.40
23769;DHT22;12064;50.890;5.424;2023-05-19T06:51:18;20.40;77.70
23769;DHT22;12064;50.890;5.424;2023-05-19T07:00:11;20.40;77.20
23769;DHT22;12064;50.890;5.424;2023-05-19T07:09:02;20.50;76.70
23769;DHT22;12064;50.890;5.424;2023-05-19T07:17:54;20.50;76.10
23769;DHT22;12064;50.890;5.424;2023-05-19T07:26:45;20.70;75.60
23769;DHT22;12064;50.890;5.424;2023-05-19T07:35:36;20.80;74.70
23769;DHT22;12064;50.890;5.424;2023-05-19T07:44:26;20.90;73.90
23769;DHT22;12064;50.890;5.424;2023-05-19T07:53:18;21.00;73.40
23769;DHT22;12064;50.890;5.424;2023-05-19T08:02:09;21.20;72.70
23769;DHT22;12064;50.890;5.424;2023-05-19T08:11:03;21.30;72.30
23769;DHT22;12064;50.890;5.424;2023-05-19T08:19:54;21.40;72.40
23769;DHT22;12064;50.890;5.424;2023-05-19T08:28:45;21.50;72.50
23769;DHT22;12064;50.890;5.424;2023-05-19T08:37:35;21.60;72.10
23769;DHT22;12064;50.890;5.424;2023-05-19T08:46:28;21.70;71.50
23769;DHT22;12064;50.890;5.424;2023-05-19T08:55:30;21.70;71.00
23769;DHT22;12064;50.890;5.424;2023-05-19T09:04:24;21.80;70.50
23769;DHT22;12064;50.890;5.424;2023-05-19T09:13:17;21.90;69.70
23769;DHT22;12064;50.890;5.424;2023-05-19T09:22:10;22.10;70.50
23769;DHT22;12064;50.890;5.424;2023-05-19T09:31:05;22.10;71.00
23769;DHT22;12064;50.890;5.424;2023-05-19T09:39:58;22.10;71.70
23769;DHT22;12064;50.890;5.424;2023-05-19T09:48:49;22.00;72.10
23769;DHT22;12064;50.890;5.424;2023-05-19T09:57:40;22.00;72.60
23769;DHT22;12064;50.890;5.424;2023-05-19T10:06:30;22.00;72.80
23769;DHT22;12064;50.890;5.424;2023-05-19T10:15:23;22.00;73.00
23769;DHT22;12064;50.890;5.424;2023-05-19T10:24:17;22.00;73.40
23769;DHT22;12064;50.890;5.424;2023-05-19T10:33:11;22.00;73.50
23769;DHT22;12064;50.890;5.424;2023-05-19T10:42:14;22.00;73.70
23769;DHT22;12064;50.890;5.424;2023-05-19T10:51:06;22.00;73.90
23769;DHT22;12064;50.890;5.424;2023-05-19T11:00:03;22.00;74.10
23769;DHT22;12064;50.890;5.424;2023-05-19T11:09:01;22.00;74.10
23769;DHT22;12064;50.890;5.424;2023-05-19T11:17:55;22.00;74.30
23769;DHT22;12064;50.890;5.424;2023-05-19T11:26:46;22.10;74.40
23769;DHT22;12064;50.890;5.424;2023-05-19T11:35:37;22.10;74.40
23769;DHT22;12064;50.890;5.424;2023-05-19T11:44:33;22.10;74.40
23769;DHT22;12064;50.890;5.424;2023-05-19T11:53:23;22.10;74.50
23769;DHT22;12064;50.890;5.424;2023-05-19T12:02:24;22.10;74.60
23769;DHT22;12064;50.890;5.424;2023-05-19T12:11:17;22.10;74.50
23769;DHT22;12064;50.890;5.424;2023-05-19T12:20:08;22.20;74.60
23769;DHT22;12064;50.890;5.424;2023-05-19T12:29:02;22.20;74.70
23769;DHT22;12064;50.890;5.424;2023-05-19T12:37:53;22.20;74.80
23769;DHT22;12064;50.890;5.424;2023-05-19T12:46:44;22.20;74.80
23769;DHT22;12064;50.890;5.424;2023-05-19T12:55:42;22.20;74.80
23769;DHT22;12064;50.890;5.424;2023-05-19T13:04:32;22.20;74.90
23769;DHT22;12064;50.890;5.424;2023-05-19T13:13:23;22.20;75.00
23769;DHT22;12064;50.890;5.424;2023-05-19T13:22:16;22.20;75.10
23769;DHT22;12064;50.890;5.424;2023-05-19T13:31:07;22.20;73.70
23769;DHT22;12064;50.890;5.424;2023-05-19T13:39:58;22.30;74.80
23769;DHT22;12064;50.890;5.424;2023-05-19T13:48:48;22.20;74.80
23769;DHT22;12064;50.890;5.424;2023-05-19T13:57:39;22.30;74.90
23769;DHT22;12064;50.890;5.424;2023-05-19T14:06:30;22.30;75.10
23769;DHT22;12064;50.890;5.424;2023-05-19T14:15:21;22.30;75.20
23769;DHT22;12064;50.890;5.424;2023-05-19T14:24:12;22.30;75.30
23769;DHT22;12064;50.890;5.424;2023-05-19T14:33:02;22.40;75.50
23769;DHT22;12064;50.890;5.424;2023-05-19T14:41:53;22.40;75.60
23769;DHT22;12064;50.890;5.424;2023-05-19T14:50:45;22.40;75.60
23769;DHT22;12064;50.890;5.424;2023-05-19T14:59:37;22.40;75.80
23769;DHT22;12064;50.890;5.424;2023-05-19T15:08:28;22.40;75.90
23769;DHT22;12064;50.890;5.424;2023-05-19T15:17:19;22.50;76.00
23769;DHT22;12064;50.890;5.424;2023-05-19T15:26:09;22.40;75.90
23769;DHT22;12064;50.890;5.424;2023-05-19T15:35:00;22.50;76.00
23769;DHT22;12064;50.890;5.424;2023-05-19T15:43:51;22.50;76.10
23769;DHT22;12064;50.890;5.424;2023-05-19T15:52:42;22.40;76.20
23769;DHT22;12064;50.890;5.424;2023-05-19T16:01:33;22.50;76.20
23769;DHT22;12064;50.890;5.424;2023-05-19T16:10:24;22.40;76.20
23769;DHT22;12064;50.890;5.424;2023-05-19T16:19:15;22.50;76.30
23769;DHT22;12064;50.890;5.424;2023-05-19T16:28:05;22.40;76.40
23769;DHT22;12064;50.890;5.424;2023-05-19T16:36:56;22.50;76.50
23769;DHT22;12064;50.890;5.424;2023-05-19T16:45:47;22.50;76.40
23769;DHT22;12064;50.890;5.424;2023-05-19T16:54:37;22.40;76.40
23769;DHT22;12064;50.890;5.424;2023-05-19T17:03:28;22.40;76.50
23769;DHT22;12064;50.890;5.424;2023-05-19T17:12:22;22.40;76.60
23769;DHT22;12064;50.890;5.424;2023-05-19T17:21:12;22.40;76.60
23769;DHT22;12064;50.890;5.424;2023-05-19T17:30:03;22.40;76.70
23769;DHT22;12064;50.890;5.424;2023-05-19T17:38:54;22.30;76.80
23769;DHT22;12064;50.890;5.424;2023-05-19T17:47:44;22.40;76.90
23769;DHT22;12064;50.890;5.424;2023-05-19T17:56:40;22.40;76.90
23769;DHT22;12064;50.890;5.424;2023-05-19T18:05:31;22.40;77.00
23769;DHT22;12064;50.890;5.424;2023-05-19T18:14:23;22.30;77.30
23769;DHT22;12064;50.890;5.424;2023-05-19T18:23:14;22.30;77.50
23769;DHT22;12064;50.890;5.424;2023-05-19T18:32:05;22.30;77.50
23769;DHT22;12064;50.890;5.424;2023-05-19T18:40:55;22.40;77.50
23769;DHT22;12064;50.890;5.424;2023-05-19T18:49:46;22.30;77.50
23769;DHT22;12064;50.890;5.424;2023-05-19T18:58:36;22.30;77.40
23769;DHT22;12064;50.890;5.424;2023-05-19T19:07:27;22.40;77.40
23769;DHT22;12064;50.890;5.424;2023-05-19T19:16:18;22.40;77.40
23769;DHT22;12064;50.890;5.424;2023-05-19T19:25:08;22.40;77.50
23769;DHT22;12064;50.890;5.424;2023-05-19T19:33:59;22.30;77.70
23769;DHT22;12064;50.890;5.424;2023-05-19T19:42:54;22.30;77.90
23769;DHT22;12064;50.890;5.424;2023-05-19T19:51:44;22.30;77.90
23769;DHT22;12064;50.890;5.424;2023-05-19T20:00:35;22.30;77.90
23769;DHT22;12064;50.890;5.424;2023-05-19T20:09:25;22.20;78.20
23769;DHT22;12064;50.890;5.424;2023-05-19T20:18:16;22.20;78.20
23769;DHT22;12064;50.890;5.424;2023-05-19T20:27:08;22.20;78.30
23769;DHT22;12064;50.890;5.424;2023-05-19T20:35:58;22.20;78.20
23769;DHT22;12064;50.890;5.424;2023-05-19T20:44:49;22.20;78.20
23769;DHT22;12064;50.890;5.424;2023-05-19T20:53:40;22.20;78.20
23769;DHT22;12064;50.890;5.424;2023-05-19T21:02:32;22.20;78.20
23769;DHT22;12064;50.890;5.424;2023-05-19T21:11:22;22.20;78.50
23769;DHT22;12064;50.890;5.424;2023-05-19T21:20:13;22.10;78.80
23769;DHT22;12064;50.890;5.424;2023-05-19T21:29:04;22.10;78.70
23769;DHT22;12064;50.890;5.424;2023-05-19T21:37:55;22.10;78.80
23769;DHT22;12064;50.890;5.424;2023-05-19T21:46:45;22.10;78.90
23769;DHT22;12064;50.890;5.424;2023-05-19T21:55:36;22.10;79.20
23769;DHT22;12064;50.890;5.424;2023-05-19T22:04:28;22.00;79.40
23769;DHT22;12064;50.890;5.424;2023-05-19T22:13:22;22.00;79.40
23769;DHT22;12064;50.890;5.424;2023-05-19T22:22:12;21.90;79.50
23769;DHT22;12064;50.890;5.424;2023-05-19T22:31:03;21.90;79.50
23769;DHT22;12064;50.890;5.424;2023-05-19T22:39:55;21.90;80.40
23769;DHT22;12064;50.890;5.424;2023-05-19T22:48:46;21.90;79.80
23769;DHT22;12064;50.890;5.424;2023-05-19T22:57:37;21.80;79.90
23769;DHT22;12064;50.890;5.424;2023-05-19T23:06:27;21.80;79.90
23769;DHT22;12064;50.890;5.424;2023-05-19T23:15:18;21.80;80.00
23769;DHT22;12064;50.890;5.424;2023-05-19T23:24:12;21.80;80.00
23769;DHT22;12064;50.890;5.424;2023-05-19T23:33:03;21.70;79.90
23769;DHT22;12064;50.890;5.424;2023-05-19T23:41:54;21.70;79.90
23769;DHT22;12064;50.890;5.424;2023-05-19T23:50:47;21.70;80.00
23769;DHT22;12064;50.890;5.424;2023-05-19T23:59:40;21.70;80.00
